Time;durP1;ratioP1;P1;durP2;ratioP2;P2;SDS_P1;SDS_P2;PMS_P1;PMS_P2;Temp;Humidity;BMP_temperature;BMP_pressure;BME280_temperature;BME280_humidity;BME280_pressure;Samples;Min_cycle;Max_cycle;Signal;HPM_P1;HPM_P2
2022/05/26 00:01:07;;;;;;;43.23;25.60;;;19.50;99.90;;;19.88;69.99;95184.97;5050599;28;20889;-56
2022/05/26 00:03:35;;;;;;;40.10;24.43;;;19.40;99.90;;;19.87;70.24;95191.31;5050208;28;20488;-57
2022/05/26 00:06:04;;;;;;;42.97;26.47;;;19.40;99.90;;;19.84;70.13;95184.50;5052509;28;20483;-57
2022/05/26 00:08:32;;;;;;;41.00;26.60;;;19.40;99.90;;;19.84;70.24;95176.50;5046260;28;20487;-56
2022/05/26 00:10:59;;;;;;;37.20;23.93;;;19.40;99.90;;;19.84;70.35;95178.34;5037644;28;20482;-56
2022/05/26 00:13:26;;;;;;;42.53;25.63;;;19.40;99.90;;;19.82;70.41;95181.19;5052633;28;20456;-56
2022/05/26 00:15:53;;;;;;;43.77;25.63;;;19.40;99.90;;;19.82;70.64;95186.53;5053790;28;20669;-55
2022/05/26 00:18:21;;;;;;;43.60;26.50;;;19.40;99.90;;;19.82;70.36;95191.06;5048763;28;20454;-57
2022/05/26 00:20:48;;;;;;;40.70;27.10;;;19.40;99.90;;;19.82;69.77;95183.06;5042536;28;20483;-56
2022/05/26 00:23:17;;;;;;;39.53;26.30;;;19.40;99.90;;;19.81;70.37;95168.03;5039865;28;20456;-56
2022/05/26 00:25:44;;;;;;;42.07;26.03;;;19.40;99.90;;;19.79;70.26;95170.09;5050243;28;20928;-55
2022/05/26 00:28:11;;;;;;;48.03;26.87;;;19.40;99.90;;;19.75;69.98;95166.94;5051874;28;20498;-57
2022/05/26 00:30:38;;;;;;;46.10;28.73;;;19.30;99.90;;;19.71;70.36;95179.00;5048287;28;20483;-55
2022/05/26 00:33:07;;;;;;;49.87;26.67;;;19.30;99.90;;;19.67;70.32;95169.72;5045245;28;20466;-59
2022/05/26 00:35:34;;;;;;;38.90;26.47;;;19.20;99.90;;;19.64;70.68;95170.09;5044166;28;20503;-57
2022/05/26 00:38:03;;;;;;;43.80;26.57;;;19.20;99.90;;;19.65;70.64;95171.75;5042764;28;20480;-57
2022/05/26 00:40:32;;;;;;;48.00;28.73;;;19.20;99.90;;;19.63;70.99;95182.63;5056765;28;20476;-54
2022/05/26 00:43:00;;;;;;;45.30;27.53;;;19.20;99.90;;;19.64;71.46;95186.94;5045639;28;20469;-55
2022/05/26 00:45:30;;;;;;;43.80;28.70;;;19.20;99.90;;;19.66;70.71;95187.59;5041152;28;20484;-56
2022/05/26 00:47:57;;;;;;;41.37;26.83;;;19.20;99.90;;;19.66;71.37;95182.25;5045211;28;20476;-54
2022/05/26 00:50:28;;;;;;;44.83;28.00;;;19.20;99.90;;;19.67;70.99;95181.25;5045658;28;20532;-56
2022/05/26 00:52:57;;;;;;;49.83;27.30;;;19.20;99.90;;;19.68;71.56;95179.38;5052298;28;20451;-57
2022/05/26 00:55:28;;;;;;;45.50;27.47;;;19.20;99.90;;;19.69;71.28;95181.06;5051161;28;20486;-55
2022/05/26 00:58:03;;;;;;;45.83;28.00;;;19.30;99.90;;;19.68;71.64;95185.53;5046600;28;20458;-56
2022/05/26 01:00:33;;;;;;;46.90;27.33;;;19.30;99.90;;;19.68;71.67;95184.72;5041139;28;20506;-56
2022/05/26 01:03:04;;;;;;;51.40;27.37;;;19.30;99.90;;;19.68;71.45;95190.88;5035091;28;20457;-56
2022/05/26 01:05:34;;;;;;;55.77;29.00;;;19.20;99.90;;;19.66;71.85;95182.25;5055984;28;20822;-56
2022/05/26 01:08:02;;;;;;;44.10;28.53;;;19.20;99.90;;;19.68;71.47;95190.88;5052533;28;20988;-54
2022/05/26 01:10:29;;;;;;;49.60;28.90;;;19.30;99.90;;;19.68;71.71;95188.22;5049960;28;20863;-56
2022/05/26 01:12:58;;;;;;;42.60;28.07;;;19.30;99.90;;;19.69;71.16;95197.06;5047160;28;20562;-57
2022/05/26 01:15:25;;;;;;;43.90;25.93;;;19.20;99.90;;;19.71;71.22;95190.50;5048526;28;20479;-57
2022/05/26 01:18:02;;;;;;;41.83;28.07;;;19.30;99.90;;;19.73;71.92;95189.50;5059542;28;20455;-57
2022/05/26 01:20:50;;;;;;;43.43;26.90;;;19.30;99.90;;;19.72;71.56;95194.03;5051422;28;20489;-58
2022/05/26 01:24:00;;;;;;;42.97;27.17;;;19.30;99.90;;;19.71;71.58;95201.19;5051090;28;20462;-57
2022/05/26 01:27:19;;;;;;;54.60;27.30;;;19.30;99.90;;;19.70;72.30;95204.03;5049170;28;20494;-56
2022/05/26 01:30:25;;;;;;;41.50;25.80;;;19.30;99.90;;;19.69;71.86;95213.06;5051182;28;20504;-55
2022/05/26 01:33:34;;;;;;;45.93;28.20;;;19.30;99.90;;;19.70;71.40;95218.22;5047669;28;20447;-57
2022/05/26 01:36:17;;;;;;;43.53;26.47;;;19.20;99.90;;;19.67;71.51;95210.59;4985455;28;20477;-55
2022/05/26 01:39:01;;;;;;;47.30;27.60;;;19.30;99.90;;;19.67;71.44;95215.94;5042459;28;20875;-56
2022/05/26 01:41:47;;;;;;;42.50;26.90;;;19.20;99.90;;;19.66;71.87;95216.94;5048363;28;20454;-56
2022/05/26 01:44:21;;;;;;;47.47;26.53;;;19.20;99.90;;;19.65;71.79;95209.94;5056892;28;20478;-56
2022/05/26 01:46:50;;;;;;;52.13;28.57;;;19.20;99.90;;;19.63;72.01;95214.66;5053777;28;20497;-56
2022/05/26 01:49:23;;;;;;;49.70;28.13;;;19.20;99.90;;;19.61;71.61;95206.00;5044390;28;20495;-57
2022/05/26 01:51:54;;;;;;;43.83;27.80;;;19.20;99.90;;;19.58;71.63;95201.03;5049022;28;20455;-57
2022/05/26 01:54:26;;;;;;;49.87;29.77;;;19.20;99.90;;;19.58;71.63;95201.03;5049900;28;20479;-57
2022/05/26 01:56:56;;;;;;;44.50;26.87;;;19.10;99.90;;;19.56;71.44;95203.06;5054195;28;21032;-55
2022/05/26 01:59:25;;;;;;;54.67;29.60;;;19.20;99.90;;;19.57;71.50;95202.06;5047456;28;20695;-56
2022/05/26 02:01:56;;;;;;;56.17;28.73;;;19.10;99.90;;;19.54;71.27;95207.75;5050063;28;21090;-54
2022/05/26 02:04:29;;;;;;;49.07;29.10;;;19.10;99.90;;;19.49;71.65;95196.84;5047646;28;20476;-57
2022/05/26 02:07:07;;;;;;;43.27;27.77;;;19.10;99.90;;;19.50;71.45;95201.97;5045172;28;20466;-56
2022/05/26 02:09:41;;;;;;;57.20;29.50;;;19.10;99.90;;;19.47;71.20;95190.84;5053163;28;20933;-58
2022/05/26 02:12:11;;;;;;;55.27;30.73;;;19.10;99.90;;;19.43;71.53;95193.06;5054999;28;20451;-56
2022/05/26 02:14:41;;;;;;;38.43;27.23;;;19.10;99.90;;;19.39;71.63;95196.28;5051320;28;20486;-54
2022/05/26 02:17:10;;;;;;;46.10;27.83;;;19.00;99.90;;;19.37;72.22;95203.66;5042259;28;20459;-55
2022/05/26 02:19:41;;;;;;;48.23;28.60;;;18.90;99.90;;;19.39;72.35;95206.97;5046426;28;20856;-57
2022/05/26 02:22:13;;;;;;;47.57;29.33;;;18.90;99.90;;;19.39;71.80;95202.44;5058524;28;20483;-57
2022/05/26 02:24:42;;;;;;;50.93;28.93;;;19.00;99.90;;;19.41;72.23;95210.25;5055041;28;21065;-54
2022/05/26 02:27:10;;;;;;;48.27;28.37;;;19.00;99.90;;;19.41;72.64;95211.09;5042790;28;20448;-56
2022/05/26 02:29:52;;;;;;;56.47;27.47;;;19.00;99.90;;;19.42;72.60;95217.25;5049637;28;20923;-57
2022/05/26 02:32:21;;;;;;;47.77;29.10;;;19.00;99.90;;;19.40;72.34;95203.28;5044748;28;20458;-54
2022/05/26 02:34:50;;;;;;;52.53;30.53;;;19.00;99.90;;;19.38;72.43;95202.63;5051589;28;20528;-56
2022/05/26 02:37:17;;;;;;;47.90;28.50;;;19.00;99.90;;;19.35;72.48;95195.84;5054776;28;20460;-55
2022/05/26 02:39:45;;;;;;;47.53;29.57;;;18.90;99.90;;;19.32;71.97;95193.53;5051145;28;20480;-56
2022/05/26 02:42:12;;;;;;;50.77;29.70;;;18.90;99.90;;;19.28;72.62;95193.06;5049724;28;20536;-56
2022/05/26 02:44:39;;;;;;;48.37;28.17;;;18.90;99.90;;;19.27;72.73;95202.09;5047990;28;20628;-57
2022/05/26 02:47:30;;;;;;;50.63;29.50;;;18.90;99.90;;;19.27;72.78;95209.25;5054165;28;20982;-58
2022/05/26 02:50:11;;;;;;;53.63;28.60;;;18.80;99.90;;;19.26;72.28;95208.44;5053356;28;20487;-56
2022/05/26 02:52:46;;;;;;;47.03;27.83;;;18.80;99.90;;;19.26;72.72;95216.44;5046989;28;20453;-56
2022/05/26 02:55:19;;;;;;;45.47;29.03;;;18.80;99.90;;;19.21;72.10;95216.19;5036827;28;20488;-55
2022/05/26 02:57:55;;;;;;;47.67;28.00;;;18.80;99.90;;;19.18;72.07;95224.56;5037505;28;20968;-57
2022/05/26 03:00:26;;;;;;;46.70;27.83;;;18.80;99.90;;;19.13;72.06;95224.25;5051723;28;20941;-57
2022/05/26 03:02:57;;;;;;;52.77;29.30;;;18.80;99.90;;;19.10;72.50;95229.94;5039835;28;20877;-56
2022/05/26 03:05:28;;;;;;;60.83;26.97;;;18.70;99.90;;;19.06;72.00;95229.50;5050979;28;20999;-56
2022/05/26 03:07:58;;;;;;;47.73;27.77;;;18.70;99.90;;;19.07;72.57;95235.66;5043704;28;20871;-57
2022/05/26 03:10:25;;;;;;;53.67;29.17;;;18.70;99.90;;;19.06;72.59;95242.84;5044341;28;20476;-56
2022/05/26 03:12:54;;;;;;;48.00;28.60;;;18.70;99.90;;;19.08;72.08;95251.47;5053296;28;20451;-57
2022/05/26 03:15:22;;;;;;;52.10;29.40;;;18.70;99.90;;;19.09;72.59;95252.31;5055417;28;20482;-58
2022/05/26 03:17:49;;;;;;;48.23;29.70;;;18.70;99.90;;;19.08;73.01;95251.47;5050157;28;20808;-54
2022/05/26 03:20:17;;;;;;;53.27;30.30;;;18.70;99.90;;;19.09;73.09;95246.97;5039345;28;20487;-55
2022/05/26 03:22:45;;;;;;;63.20;27.63;;;18.70;99.90;;;19.06;72.47;95250.00;5038291;28;20935;-57
2022/05/26 03:25:13;;;;;;;43.47;28.27;;;18.70;99.90;;;19.08;72.39;95242.66;5062392;28;20492;-55
2022/05/26 03:27:40;;;;;;;51.10;28.50;;;18.70;99.90;;;19.07;72.30;95246.31;5052664;28;20539;-56
2022/05/26 03:30:09;;;;;;;66.77;29.57;;;18.70;99.90;;;19.07;72.73;95251.66;5048793;28;20495;-56
2022/05/26 03:32:36;;;;;;;45.37;28.70;;;18.70;99.90;;;19.06;72.22;95255.34;5044958;28;21012;-57
2022/05/26 03:40:57;;;;;;;51.37;30.17;;;18.70;99.90;;;19.02;72.55;95259.38;5049335;28;20612;-56
2022/05/26 03:43:29;;;;;;;48.50;28.23;;;18.60;99.90;;;19.05;72.38;95265.16;5054227;28;20448;-57
2022/05/26 03:45:59;;;;;;;54.60;31.83;;;18.60;99.90;;;19.07;72.66;95263.16;5048285;28;20870;-58
2022/05/26 03:48:26;;;;;;;69.77;31.57;;;18.70;99.90;;;19.10;72.27;95267.28;5046683;28;20471;-56
2022/05/26 03:50:53;;;;;;;58.37;29.47;;;18.70;99.90;;;19.14;72.52;95265.91;5052874;28;20471;-57
2022/05/26 03:53:23;;;;;;;50.37;30.30;;;18.70;99.90;;;19.18;72.79;95275.22;5047943;28;20455;-57
2022/05/26 03:55:50;;;;;;;67.20;31.97;;;18.80;99.90;;;19.24;72.64;95285.16;5051261;28;20541;-54
2022/05/26 03:58:18;;;;;;;56.67;30.33;;;18.80;99.90;;;19.28;71.93;95293.59;5049564;28;20450;-58
2022/05/26 04:00:45;;;;;;;50.80;28.87;;;18.80;99.90;;;19.34;72.41;95296.34;5045893;28;20464;-58
2022/05/26 04:03:13;;;;;;;52.50;31.70;;;18.90;99.90;;;19.40;72.00;95293.97;5052721;28;20453;-58
2022/05/26 04:05:41;;;;;;;51.63;28.57;;;18.90;99.90;;;19.47;72.46;95294.88;5054420;28;20490;-58
2022/05/26 04:08:09;;;;;;;54.60;29.83;;;19.00;99.90;;;19.55;72.33;95293.97;5052732;28;20455;-58
2022/05/26 04:10:38;;;;;;;58.80;28.40;;;19.10;99.90;;;19.63;71.97;95294.69;5049487;28;20499;-53
2022/05/26 04:13:05;;;;;;;61.87;30.73;;;19.20;99.90;;;19.69;71.55;95291.28;5043413;28;20466;-58
2022/05/26 04:15:32;;;;;;;47.30;27.73;;;19.20;99.90;;;19.76;71.01;95279.88;5042270;28;20586;-54
2022/05/26 04:17:59;;;;;;;44.00;27.90;;;19.30;99.90;;;19.82;71.13;95295.16;5055676;28;20466;-58
2022/05/26 04:20:27;;;;;;;51.83;30.20;;;19.40;99.90;;;19.87;71.07;95295.44;5050140;28;20882;-54
2022/05/26 04:22:54;;;;;;;49.00;28.03;;;19.40;99.90;;;19.91;71.15;95296.72;5047325;28;20452;-59
2022/05/26 04:25:22;;;;;;;44.80;28.37;;;19.50;99.90;;;19.95;71.03;95300.66;5044998;28;20484;-59
2022/05/26 04:27:53;;;;;;;53.57;29.17;;;19.50;99.90;;;19.99;70.94;95298.44;5050651;28;20466;-57
2022/05/26 04:30:20;;;;;;;50.00;27.60;;;19.60;99.90;;;20.03;71.12;95311.25;5053685;28;21106;-56
2022/05/26 04:32:47;;;;;;;53.47;27.70;;;19.60;99.90;;;20.10;70.72;95313.16;5051022;28;20447;-58
2022/05/26 04:35:15;;;;;;;55.60;29.97;;;19.70;99.90;;;20.16;70.53;95305.22;5051845;28;20524;-54
2022/05/26 04:37:42;;;;;;;47.47;29.23;;;19.70;99.90;;;20.21;70.21;95312.66;5043303;28;20514;-58
2022/05/26 04:40:11;;;;;;;49.50;30.03;;;19.80;99.90;;;20.24;70.46;95301.59;5048317;28;20541;-55
2022/05/26 04:42:39;;;;;;;55.30;29.87;;;19.80;99.90;;;20.28;70.29;95302.88;5048188;28;20456;-55
2022/05/26 04:45:11;;;;;;;43.07;26.90;;;19.90;99.90;;;20.34;70.21;95302.13;5050940;28;21050;-58
2022/05/26 04:47:39;;;;;;;52.40;25.93;;;19.90;99.90;;;20.41;69.24;95300.31;5053075;28;20533;-56
2022/05/26 04:50:08;;;;;;;46.40;28.30;;;20.00;99.90;;;20.49;69.04;95293.22;5052511;28;20500;-54
2022/05/26 04:52:36;;;;;;;45.53;25.67;;;20.00;99.90;;;20.58;68.79;95305.44;5049464;28;20464;-57
2022/05/26 04:55:05;;;;;;;56.90;24.70;;;20.10;99.90;;;20.65;68.93;95293.00;5058560;28;20588;-56
2022/05/26 04:57:32;;;;;;;53.17;26.20;;;20.20;99.90;;;20.75;68.27;95309.50;5052209;28;20816;-54
2022/05/26 04:59:59;;;;;;;49.47;25.07;;;20.30;99.90;;;20.81;67.77;95307.13;5055231;28;20865;-57
2022/05/26 05:02:28;;;;;;;56.93;26.47;;;20.30;99.80;;;20.90;67.97;95311.31;5056780;28;20810;-55
2022/05/26 05:04:55;;;;;;;45.17;23.93;;;20.40;99.50;;;20.96;67.84;95310.53;5060404;28;20467;-58
2022/05/26 05:07:22;;;;;;;57.40;26.33;;;20.50;99.50;;;21.04;67.54;95313.06;5060404;28;20451;-56
2022/05/26 05:09:50;;;;;;;48.17;25.87;;;20.60;99.60;;;21.13;67.09;95311.88;5052420;28;20495;-54
2022/05/26 05:12:19;;;;;;;46.77;23.50;;;20.70;99.30;;;21.23;66.90;95311.53;5059187;28;20454;-56
2022/05/26 05:14:47;;;;;;;51.03;21.73;;;20.70;98.90;;;21.36;66.34;95310.78;5057882;28;20848;-57
2022/05/26 05:17:16;;;;;;;37.57;22.00;;;20.90;98.60;;;21.48;66.07;95322.59;5057399;28;20814;-56
2022/05/26 05:19:45;;;;;;;39.80;22.10;;;21.00;98.40;;;21.63;65.51;95319.03;5061250;28;20983;-56
2022/05/26 05:22:16;;;;;;;42.93;21.23;;;21.10;98.00;;;21.79;65.25;95323.22;5062123;28;20451;-57
2022/05/26 05:24:46;;;;;;;40.17;22.07;;;21.30;97.80;;;21.97;64.61;95325.38;5060112;28;20475;-56
2022/05/26 05:27:15;;;;;;;41.70;20.40;;;21.40;97.50;;;22.10;63.78;95330.75;5044404;28;20444;-56
2022/05/26 05:29:43;;;;;;;38.47;20.37;;;21.60;97.10;;;22.28;63.84;95330.22;5047811;28;20576;-57
2022/05/26 05:32:15;;;;;;;35.50;21.47;;;21.80;96.70;;;22.47;63.00;95331.31;5047720;28;20459;-58
2022/05/26 05:34:44;;;;;;;48.00;23.10;;;21.90;96.40;;;22.65;62.58;95338.81;5047983;28;20472;-56
2022/05/26 05:37:12;;;;;;;44.30;22.80;;;22.10;96.20;;;22.83;62.70;95335.50;5049859;28;20448;-58
2022/05/26 05:39:39;;;;;;;39.87;21.03;;;22.20;95.90;;;23.04;62.00;95341.72;5050957;28;20463;-58
2022/05/26 05:42:07;;;;;;;45.20;21.57;;;22.50;95.70;;;23.26;61.74;95342.38;5049614;28;20467;-58
2022/05/26 05:44:35;;;;;;;37.30;20.73;;;22.60;95.10;;;23.46;61.49;95353.09;5050828;28;20945;-56
2022/05/26 05:47:03;;;;;;;39.97;21.23;;;22.90;95.00;;;23.56;60.90;95358.88;5050316;28;20508;-60
2022/05/26 05:49:32;;;;;;;37.37;19.87;;;23.00;94.40;;;23.61;60.04;95356.38;5050801;28;20495;-58
2022/05/26 05:52:08;;;;;;;38.03;20.33;;;23.10;94.00;;;23.62;59.80;95360.72;5047115;28;20447;-57
2022/05/26 05:54:36;;;;;;;42.80;19.63;;;23.10;93.60;;;23.59;60.13;95369.19;5051643;28;20468;-56
2022/05/26 05:57:03;;;;;;;40.60;19.40;;;23.10;93.40;;;23.58;59.89;95367.53;5052494;28;20520;-57
2022/05/26 05:59:31;;;;;;;37.27;18.20;;;23.10;93.10;;;23.55;59.57;95365.25;5052899;28;20479;-57
2022/05/26 06:01:58;;;;;;;35.30;19.17;;;23.10;93.00;;;23.51;59.66;95368.56;5053138;28;20529;-57
2022/05/26 06:04:25;;;;;;;45.50;19.50;;;23.10;93.00;;;23.49;59.71;95376.84;5053132;28;21198;-56
2022/05/26 06:06:52;;;;;;;56.53;19.20;;;23.10;92.90;;;23.48;59.88;95377.84;5053984;28;20448;-56
2022/05/26 06:09:21;;;;;;;40.00;20.00;;;23.00;93.00;;;23.49;59.42;95371.47;5051317;28;20549;-57
2022/05/26 06:11:49;;;;;;;40.00;18.60;;;23.00;93.10;;;23.54;59.26;95377.03;5050796;28;20986;-58
2022/05/26 06:14:16;;;;;;;32.97;19.20;;;23.10;93.20;;;23.61;59.10;95383.22;5054493;28;20769;-56
2022/05/26 06:16:45;;;;;;;41.33;17.50;;;23.10;93.00;;;23.74;59.83;95382.38;5054474;28;20455;-55
2022/05/26 06:19:14;;;;;;;39.27;17.93;;;23.20;93.10;;;23.94;58.97;95382.34;5056551;28;20541;-57
2022/05/26 06:21:41;;;;;;;33.13;18.60;;;23.40;93.20;;;24.10;58.59;95377.56;5057094;28;20801;-57
2022/05/26 06:24:10;;;;;;;34.47;18.30;;;23.50;92.80;;;24.22;58.44;95383.13;5055364;28;20483;-57
2022/05/26 06:26:38;;;;;;;43.57;18.53;;;23.70;92.70;;;24.29;59.07;95384.75;5058063;28;20459;-56
2022/05/26 06:37:28;;;;;;;37.07;16.87;;;24.00;92.00;;;24.60;57.34;95407.38;5057920;28;20427;-57
2022/05/26 06:39:55;;;;;;;46.90;17.20;;;24.10;91.60;;;24.68;57.70;95401.75;5057768;28;20474;-57
2022/05/26 06:42:25;;;;;;;31.20;16.73;;;24.10;91.30;;;24.75;56.92;95390.94;5057393;28;20458;-57
2022/05/26 06:44:53;;;;;;;30.30;14.20;;;24.20;91.10;;;24.90;56.72;95400.59;5056128;28;20481;-58
2022/05/26 06:47:22;;;;;;;26.50;15.33;;;24.40;90.80;;;25.17;56.25;95403.94;5057404;28;21037;-57
2022/05/26 06:49:50;;;;;;;24.77;15.27;;;24.60;90.50;;;25.48;55.56;95396.88;5056978;28;20540;-57
2022/05/26 06:52:18;;;;;;;26.57;14.10;;;24.80;90.20;;;25.82;55.13;95403.63;5060236;28;20454;-57
2022/05/26 06:54:46;;;;;;;38.63;17.97;;;25.10;89.40;;;26.17;54.42;95404.97;5059439;28;20479;-56
2022/05/26 06:57:14;;;;;;;34.00;14.83;;;25.50;88.60;;;26.56;53.72;95402.84;5061978;28;20846;-55
2022/05/26 06:59:43;;;;;;;36.23;14.60;;;25.80;87.30;;;26.92;53.05;95404.66;5058547;28;20562;-58
2022/05/26 07:02:11;;;;;;;29.20;14.50;;;26.20;86.00;;;27.25;51.88;95406.06;5062396;28;20823;-54
2022/05/26 07:04:39;;;;;;;31.17;13.07;;;26.60;83.40;;;27.55;51.45;95408.72;5060264;28;20486;-57
2022/05/26 07:07:06;;;;;;;26.87;14.23;;;26.80;82.30;;;27.87;50.80;95407.53;5061672;28;20576;-57
2022/05/26 07:09:34;;;;;;;29.63;15.00;;;27.10;80.90;;;28.15;49.58;95406.88;5062371;28;20517;-58
2022/05/26 07:12:01;;;;;;;26.07;13.73;;;27.40;77.40;;;28.40;49.65;95400.34;5053323;28;20747;-58
2022/05/26 07:14:28;;;;;;;24.73;14.40;;;27.70;76.50;;;28.68;48.29;95413.13;5060945;28;20479;-57
2022/05/26 07:16:57;;;;;;;32.67;14.37;;;27.90;75.20;;;28.91;48.14;95406.81;5060090;28;20448;-61
2022/05/26 07:19:24;;;;;;;22.30;10.93;;;28.20;73.60;;;29.16;46.67;95405.63;5041989;28;20888;-59
2022/05/26 07:21:51;;;;;;;27.13;11.30;;;28.40;70.20;;;29.41;46.49;95399.03;5046357;28;20451;-58
2022/05/26 07:24:20;;;;;;;23.63;10.63;;;28.60;70.50;;;29.61;46.03;95399.34;5047193;28;20764;-56
2022/05/26 07:26:47;;;;;;;28.13;10.07;;;28.90;68.40;;;29.84;45.06;95405.72;5043547;28;20474;-57
2022/05/26 07:29:14;;;;;;;24.53;8.97;;;29.10;66.90;;;30.03;45.59;95396.19;5047193;28;20506;-56
2022/05/26 07:31:42;;;;;;;15.90;6.60;;;29.30;66.30;;;30.28;44.34;95403.06;5047865;28;20528;-56
2022/05/26 07:34:11;;;;;;;23.07;6.10;;;29.50;63.30;;;30.53;43.01;95401.78;5047015;28;20538;-58
2022/05/26 07:42:10;;;;;;;27.10;5.00;;;30.30;57.00;;;31.37;40.87;95402.41;5049104;28;20192;-56
2022/05/26 07:44:39;;;;;;;19.47;5.30;;;30.60;55.80;;;31.61;39.36;95406.44;5050179;28;20913;-54
2022/05/26 07:47:08;;;;;;;13.53;5.20;;;30.80;54.40;;;31.83;39.16;95405.53;5050130;28;20204;-54
2022/05/26 07:49:37;;;;;;;10.57;5.03;;;31.00;53.30;;;32.01;38.57;95409.75;5050859;28;20713;-58
2022/05/26 07:52:05;;;;;;;10.03;4.53;;;31.30;52.50;;;32.21;37.83;95405.50;5047818;28;20205;-57
2022/05/26 07:54:32;;;;;;;8.63;5.07;;;31.40;50.90;;;32.39;37.03;95412.44;5051470;28;20235;-58
2022/05/26 07:57:00;;;;;;;12.60;5.70;;;31.60;49.80;;;32.53;36.91;95417.13;5052219;28;20661;-58
2022/05/26 07:59:27;;;;;;;13.18;5.97;;;31.80;50.10;;;32.72;36.37;95413.13;5051582;28;20241;-55
2022/05/26 08:01:54;;;;;;;13.63;4.97;;;31.90;49.00;;;32.92;36.47;95406.94;5052508;28;20204;-57
2022/05/26 08:04:22;;;;;;;14.02;6.00;;;32.10;48.90;;;33.12;35.89;95414.34;5053011;28;20639;-59
2022/05/26 08:06:50;;;;;;;10.45;4.20;;;32.30;48.50;;;33.30;35.77;95416.59;5047406;28;20207;-55
2022/05/26 08:09:19;;;;;;;16.38;5.13;;;32.50;47.90;;;33.49;35.07;95416.06;5054691;28;20220;-57
2022/05/26 08:11:47;;;;;;;20.33;5.60;;;32.70;47.60;;;33.66;34.66;95415.78;5051648;28;20639;-57
2022/05/26 08:14:14;;;;;;;7.38;4.75;;;32.90;47.00;;;33.84;34.20;95409.81;5053077;28;21049;-57
2022/05/26 08:16:42;;;;;;;14.80;5.15;;;33.00;45.40;;;33.96;34.75;95412.28;5053179;28;20207;-56
2022/05/26 08:19:09;;;;;;;16.17;5.63;;;33.20;46.30;;;34.12;34.51;95404.88;5054271;28;20212;-57
2022/05/26 08:21:37;;;;;;;13.75;5.47;;;33.30;46.10;;;34.25;34.54;95415.22;5052363;28;20631;-58
2022/05/26 08:24:06;;;;;;;12.85;4.00;;;33.50;45.60;;;34.38;34.69;95416.56;5061558;28;20216;-55
2022/05/26 08:26:34;;;;;;;10.40;4.40;;;33.60;45.90;;;34.51;33.83;95425.28;5063830;28;20315;-54
2022/05/26 08:29:01;;;;;;;16.77;5.47;;;33.70;45.80;;;34.59;32.64;95417.31;5063547;28;20285;-55
2022/05/26 08:31:28;;;;;;;7.53;4.50;;;33.80;43.50;;;34.61;33.87;95425.22;5059718;28;20428;-56
2022/05/26 08:33:56;;;;;;;14.30;5.55;;;33.90;44.80;;;34.65;33.44;95424.38;5062365;28;20623;-58
2022/05/26 08:36:25;;;;;;;14.43;4.80;;;33.90;44.60;;;34.64;33.51;95427.41;5064086;28;20208;-60
2022/05/26 08:38:53;;;;;;;11.13;4.93;;;33.90;44.40;;;34.52;33.79;95424.16;5057257;28;20212;-54
2022/05/26 08:41:24;;;;;;;8.73;4.22;;;33.80;44.40;;;34.34;33.12;95428.31;5066111;28;20232;-56
2022/05/26 08:43:55;;;;;;;14.77;5.28;;;33.70;44.10;;;34.14;33.31;95429.97;5060470;28;20580;-60
2022/05/26 08:46:22;;;;;;;11.40;5.43;;;33.50;43.20;;;33.98;33.92;95426.44;5058597;28;20214;-58
2022/05/26 08:49:01;;;;;;;25.75;5.93;;;33.40;44.40;;;33.92;33.98;95422.91;5062687;28;20684;-54
2022/05/26 08:51:40;;;;;;;12.13;4.72;;;33.30;44.60;;;33.93;32.83;95430.00;5058348;28;20215;-58
2022/05/26 08:54:08;;;;;;;10.32;5.78;;;33.30;44.60;;;34.07;33.91;95421.25;5061077;28;20219;-55
2022/05/26 08:56:36;;;;;;;16.48;6.60;;;33.30;44.30;;;34.22;33.51;95429.44;5059760;28;20654;-56
2022/05/26 08:59:09;;;;;;;12.10;4.72;;;33.50;44.20;;;34.38;33.63;95427.50;5055453;28;20211;-58
2022/05/26 09:01:37;;;;;;;9.60;6.18;;;33.60;44.40;;;34.52;33.19;95419.53;5060046;28;20262;-57
2022/05/26 09:04:04;;;;;;;8.07;5.07;;;33.80;43.70;;;34.65;32.82;95426.31;5056256;28;20208;-55
2022/05/26 09:12:55;;;;;;;5.60;4.75;;;33.90;43.90;;;34.73;32.32;95424.91;5058454;28;20192;-56
2022/05/26 09:14:55;;;;;;;12.95;4.75;;;34.10;43.20;;;35.07;32.49;95426.97;5051117;28;20232;-58
2022/05/26 09:17:22;;;;;;;12.77;4.40;;;34.30;43.00;;;35.25;31.99;95417.31;5045484;28;20205;-58
2022/05/26 09:19:52;;;;;;;7.50;4.07;;;34.50;42.80;;;35.42;31.82;95414.22;5049585;28;20603;-57
2022/05/26 09:22:31;;;;;;;6.97;4.28;;;34.60;42.90;;;35.62;31.87;95410.47;5053418;28;20205;-56
2022/05/26 09:24:58;;;;;;;27.02;5.03;;;34.80;42.30;;;35.78;31.88;95427.63;5051626;28;20228;-56
2022/05/26 09:27:30;;;;;;;16.80;4.30;;;35.00;42.20;;;35.93;30.99;95413.81;5052240;28;20205;-54
2022/05/26 09:30:23;;;;;;;8.85;4.35;;;35.10;41.10;;;36.03;31.08;95424.66;5053524;28;20315;-60
2022/05/26 09:32:50;;;;;;;17.90;4.80;;;35.30;40.90;;;36.14;30.01;95430.03;5051687;28;20266;-55
2022/05/26 09:35:26;;;;;;;15.80;4.50;;;35.40;39.40;;;36.19;30.63;95428.06;5049341;28;20224;-54
2022/05/26 09:37:54;;;;;;;10.45;4.32;;;35.50;40.30;;;36.23;30.61;95433.78;5048900;28;20200;-54
2022/05/26 09:40:26;;;;;;;23.30;5.45;;;35.50;39.90;;;36.25;29.64;95423.34;5051339;28;20229;-54
2022/05/26 09:43:02;;;;;;;9.85;5.32;;;35.50;39.30;;;36.13;29.38;95428.41;5048398;28;20197;-55
2022/05/26 09:45:34;;;;;;;11.85;4.30;;;35.40;39.70;;;35.99;31.17;95423.63;5052537;28;20231;-58
2022/05/26 09:48:01;;;;;;;14.65;4.53;;;35.30;39.90;;;35.87;30.75;95420.44;5042622;28;20204;-58
2022/05/26 09:50:45;;;;;;;18.10;5.00;;;35.20;40.40;;;35.83;29.88;95417.44;5051028;28;20685;-56
2022/05/26 09:53:13;;;;;;;14.23;4.13;;;35.20;39.30;;;35.87;30.22;95412.22;5052440;28;20278;-58
2022/05/26 09:55:46;;;;;;;9.02;4.72;;;35.20;39.50;;;35.96;29.65;95413.25;5052868;28;20213;-56
2022/05/26 09:58:28;;;;;;;12.02;4.35;;;35.20;39.40;;;36.06;29.66;95407.63;5054051;28;20622;-56
2022/05/26 10:00:56;;;;;;;14.93;3.55;;;35.30;39.50;;;36.14;30.01;95413.59;5053669;28;20217;-56
2022/05/26 10:03:34;;;;;;;14.13;4.13;;;35.40;39.20;;;36.23;29.73;95406.41;5051518;28;20202;-55
2022/05/26 10:06:26;;;;;;;18.17;3.03;;;35.50;38.90;;;36.19;29.28;95410.81;5050860;28;20221;-56
2022/05/26 10:09:06;;;;;;;8.27;3.70;;;35.50;38.60;;;36.09;29.08;95417.22;5052959;28;20700;-57
2022/05/26 10:11:47;;;;;;;15.85;4.10;;;35.40;38.40;;;36.00;28.80;95408.00;5054821;28;20216;-58
2022/05/26 10:14:33;;;;;;;6.32;3.03;;;35.40;38.30;;;35.99;27.07;95412.66;5055844;28;20684;-56
2022/05/26 10:17:05;;;;;;;7.70;3.25;;;35.30;37.70;;;35.92;28.71;95406.69;5045164;28;20207;-59
2022/05/26 10:19:43;;;;;;;10.00;3.28;;;35.20;37.30;;;35.92;29.37;95411.38;5057843;28;20650;-56
2022/05/26 10:22:36;;;;;;;14.00;3.58;;;35.20;37.70;;;35.90;27.77;95406.97;5051896;28;20374;-55
2022/05/26 10:25:22;;;;;;;8.15;2.83;;;35.20;36.60;;;35.82;28.14;95413.09;5052266;28;20298;-58
2022/05/26 10:27:59;;;;;;;10.15;3.55;;;35.10;36.30;;;35.70;26.65;95407.13;5053285;28;20196;-58
2022/05/26 10:30:35;;;;;;;13.55;3.97;;;35.00;36.70;;;35.62;27.57;95407.72;5059243;28;20220;-61
2022/05/26 10:33:26;;;;;;;6.45;3.25;;;34.90;36.40;;;35.54;26.64;95412.75;5054930;28;20563;-56
2022/05/26 10:36:04;;;;;;;6.70;3.05;;;34.90;35.20;;;35.41;25.74;95401.63;5057882;28;20212;-56
2022/05/26 10:39:00;;;;;;;8.98;3.63;;;34.70;33.30;;;35.24;26.22;95402.78;5059410;28;20736;-56
2022/05/26 10:41:32;;;;;;;4.15;2.80;;;34.60;34.40;;;35.10;26.04;95415.47;5054064;28;20207;-57
2022/05/26 10:44:06;;;;;;;8.77;2.53;;;34.40;33.80;;;34.94;26.52;95415.53;5058773;28;20706;-57
2022/05/26 10:46:37;;;;;;;18.90;3.28;;;34.30;35.10;;;34.90;27.14;95403.53;5056464;28;20636;-55
2022/05/26 10:49:08;;;;;;;12.48;4.18;;;34.30;35.10;;;34.94;27.29;95395.59;5058831;28;20404;-56